Time;durP1;ratioP1;P1;durP2;ratioP2;P2;SDS_P1;SDS_P2;PMS_P1;PMS_P2;Temp;Humidity;BMP_temperature;BMP_pressure;BME280_temperature;BME280_humidity;BME280_pressure;Samples;Min_cycle;Max_cycle;Signal;HPM_P1;HPM_P2
2024/01/04 00:01:13;;;;;;;2.37;0.53;;;;;;;9.82;94.50;98467.41;5055548;28;20438;-61
2024/01/04 00:03:39;;;;;;;1.70;0.60;;;;;;;9.82;94.33;98470.13;5055152;28;20446;-61
2024/01/04 00:06:06;;;;;;;1.60;0.40;;;;;;;9.86;93.93;98462.88;5054811;28;20526;-61
2024/01/04 00:08:33;;;;;;;1.60;0.30;;;;;;;9.84;93.75;98458.97;5054631;28;20533;-61
2024/01/04 00:11:02;;;;;;;2.43;0.50;;;;;;;9.88;93.87;98459.06;5055480;28;20524;-61
2024/01/04 00:13:30;;;;;;;2.30;0.60;;;;;;;9.88;94.24;98462.56;5054756;28;20487;-61
2024/01/04 00:15:56;;;;;;;1.70;0.40;;;;;;;9.92;93.97;98465.34;5055184;28;20488;-61
2024/01/04 00:18:23;;;;;;;1.70;0.50;;;;;;;9.92;94.46;98457.25;5055043;28;20477;-62
2024/01/04 00:20:50;;;;;;;1.60;0.40;;;;;;;9.91;93.41;98458.34;5054754;28;20500;-61
2024/01/04 00:23:16;;;;;;;1.60;0.40;;;;;;;9.85;94.69;98457.84;5054738;28;20892;-61
2024/01/04 00:25:43;;;;;;;1.60;0.40;;;;;;;9.82;95.39;98451.19;5054483;28;20488;-61
2024/01/04 00:28:10;;;;;;;1.60;0.40;;;;;;;9.81;95.29;98463.16;5054755;28;20481;-61
2024/01/04 00:30:38;;;;;;;2.37;0.60;;;;;;;9.82;94.65;98464.72;5054652;28;20533;-61
2024/01/04 00:33:05;;;;;;;1.80;0.47;;;;;;;9.78;95.35;98465.75;5054492;28;20468;-61
2024/01/04 00:35:31;;;;;;;1.70;0.40;;;;;;;9.78;95.35;98463.06;5054824;28;20486;-63
2024/01/04 00:38:00;;;;;;;1.60;0.40;;;;;;;9.72;96.21;98478.75;5054098;28;20508;-63
2024/01/04 00:40:28;;;;;;;1.60;0.40;;;;;;;9.72;96.55;98475.28;5054311;28;21003;-63
2024/01/04 00:42:55;;;;;;;1.60;0.30;;;;;;;9.75;95.99;98478.06;5054272;28;20468;-63
2024/01/04 00:45:21;;;;;;;1.80;0.53;;;;;;;9.77;95.27;98475.78;5054415;28;20534;-63
2024/01/04 00:47:49;;;;;;;1.70;0.50;;;;;;;9.76;95.47;98474.22;5053648;28;20525;-62
2024/01/04 00:50:16;;;;;;;3.20;0.60;;;;;;;9.76;95.17;98473.44;5054687;28;20434;-62
2024/01/04 00:52:43;;;;;;;1.80;0.60;;;;;;;9.78;94.65;98482.78;5054504;28;21063;-62
2024/01/04 00:55:10;;;;;;;2.37;0.50;;;;;;;9.78;94.79;98473.88;5053953;28;20926;-62
2024/01/04 00:57:36;;;;;;;1.60;0.40;;;;;;;9.78;94.55;98476.56;5054597;28;20477;-62
2024/01/04 01:00:04;;;;;;;1.80;0.40;;;;;;;9.77;94.60;98483.91;5054174;28;20438;-62
2024/01/04 01:02:31;;;;;;;1.60;0.40;;;;;;;9.78;94.11;98482.78;5054197;28;20467;-62
2024/01/04 01:04:58;;;;;;;1.60;0.40;;;;;;;9.76;93.95;98479.63;5054363;28;20438;-63
2024/01/04 01:07:25;;;;;;;1.60;0.40;;;;;;;9.76;93.60;98478.84;5053824;28;20804;-62
2024/01/04 01:09:52;;;;;;;1.60;0.30;;;;;;;9.72;94.55;98483.38;5054321;28;20433;-63
2024/01/04 01:12:19;;;;;;;1.57;0.40;;;;;;;9.73;94.33;98488.44;5054222;28;20516;-62
2024/01/04 01:14:46;;;;;;;1.60;0.40;;;;;;;9.76;94.27;98482.34;5053855;28;20442;-62
2024/01/04 01:17:12;;;;;;;1.60;0.40;;;;;;;9.76;94.21;98479.63;5053648;28;21079;-62
2024/01/04 01:19:39;;;;;;;2.00;0.50;;;;;;;9.74;94.40;98492.72;5053799;28;20533;-61
2024/01/04 01:22:07;;;;;;;1.60;0.40;;;;;;;9.69;94.79;98492.94;5053255;28;20996;-62
2024/01/04 01:24:34;;;;;;;1.60;0.40;;;;;;;9.74;94.02;98494.63;5053765;28;20473;-62
2024/01/04 01:27:01;;;;;;;1.70;0.50;;;;;;;9.80;92.92;98485.91;5053761;28;20473;-62
2024/01/04 01:29:27;;;;;;;1.60;0.30;;;;;;;9.76;93.58;98493.16;5053773;28;20956;-62
2024/01/04 01:31:54;;;;;;;1.60;0.40;;;;;;;9.72;93.68;98484.16;5053221;28;20869;-62
2024/01/04 01:34:21;;;;;;;1.87;0.50;;;;;;;9.68;94.26;98488.69;5053673;28;20525;-62
2024/01/04 01:36:47;;;;;;;2.70;0.50;;;;;;;9.69;94.82;98489.47;5053207;28;20486;-61
2024/01/04 01:39:15;;;;;;;1.60;0.30;;;;;;;9.62;95.50;98494.72;5053412;28;20458;-62
2024/01/04 01:41:42;;;;;;;1.90;0.60;;;;;;;9.56;96.00;98494.16;5053735;28;20551;-61
2024/01/04 01:44:10;;;;;;;2.27;0.70;;;;;;;9.50;96.25;98493.63;5053508;28;20442;-61
2024/01/04 01:46:38;;;;;;;1.60;0.40;;;;;;;9.53;95.60;98489.47;5053103;28;20453;-62
2024/01/04 01:49:05;;;;;;;1.60;0.40;;;;;;;9.49;95.74;98496.69;5053435;28;20474;-62
2024/01/04 01:51:32;;;;;;;1.80;0.40;;;;;;;9.51;96.09;98495.19;5053341;28;20462;-62
2024/01/04 01:53:58;;;;;;;1.60;0.30;;;;;;;9.53;95.60;98494.84;5053730;28;20476;-62
2024/01/04 01:56:27;;;;;;;1.70;0.40;;;;;;;9.58;94.78;98494.59;5053226;28;20484;-61
2024/01/04 01:58:53;;;;;;;1.60;0.40;;;;;;;9.60;95.07;98492.31;5053087;28;20525;-62
2024/01/04 02:01:19;;;;;;;1.60;0.40;;;;;;;9.66;94.34;98496.38;5057111;28;20454;-62
2024/01/04 02:03:47;;;;;;;1.60;0.47;;;;;;;9.69;93.77;98505.69;5057404;28;20434;-62
2024/01/04 02:06:13;;;;;;;1.60;0.40;;;;;;;9.69;93.83;98501.06;5057120;28;20290;-61
2024/01/04 02:08:40;;;;;;;1.80;0.50;;;;;;;9.65;94.74;98502.09;5057892;28;20534;-62
2024/01/04 02:11:07;;;;;;;1.67;0.47;;;;;;;9.64;94.79;98503.25;5057190;28;20470;-62
2024/01/04 02:13:35;;;;;;;1.60;0.40;;;;;;;9.66;94.38;98498.28;5057487;28;20525;-61
2024/01/04 02:16:01;;;;;;;1.60;0.37;;;;;;;9.65;94.62;98502.91;5057534;28;20517;-61
2024/01/04 02:18:28;;;;;;;3.60;0.60;;;;;;;9.64;95.19;98498.63;5057467;28;20476;-61
2024/01/04 02:20:55;;;;;;;1.60;0.40;;;;;;;9.64;95.59;98497.84;5057255;28;20524;-61
2024/01/04 02:23:22;;;;;;;1.60;0.30;;;;;;;9.67;94.88;98497.16;5057182;28;20538;-61
2024/01/04 02:25:49;;;;;;;1.80;0.50;;;;;;;9.66;95.01;98499.06;5056890;28;20533;-62
2024/01/04 02:28:16;;;;;;;1.60;0.40;;;;;;;9.62;95.35;98492.78;5056815;28;20445;-61
2024/01/04 02:30:42;;;;;;;1.70;0.40;;;;;;;9.58;96.33;98498.09;5057636;28;20477;-61
2024/01/04 02:33:09;;;;;;;1.70;0.50;;;;;;;9.59;95.96;98491.53;5056808;28;20466;-62
2024/01/04 02:35:36;;;;;;;2.10;0.50;;;;;;;9.69;94.83;98495.66;5056945;28;20476;-62
2024/01/04 02:38:02;;;;;;;1.63;0.40;;;;;;;9.68;95.00;98507.59;5056588;28;20481;-62
2024/01/04 02:40:31;;;;;;;1.70;0.40;;;;;;;9.69;95.08;98495.66;5056800;28;20462;-61
2024/01/04 02:42:58;;;;;;;1.70;0.40;;;;;;;9.69;94.79;98511.09;5056609;28;20508;-61
2024/01/04 02:45:24;;;;;;;1.90;0.47;;;;;;;9.63;95.01;98512.50;5056375;28;20840;-62
2024/01/04 02:47:51;;;;;;;2.00;0.70;;;;;;;9.66;94.99;98517.22;5056443;28;20944;-62
2024/01/04 02:50:18;;;;;;;1.60;0.40;;;;;;;9.64;95.71;98516.75;5056498;28;20489;-62
2024/01/04 02:52:45;;;;;;;1.60;0.47;;;;;;;9.67;94.87;98510.66;5056479;28;20488;-61
2024/01/04 02:55:11;;;;;;;1.90;0.50;;;;;;;9.65;95.22;98521.03;5056482;28;20485;-61
2024/01/04 02:57:39;;;;;;;1.60;0.40;;;;;;;9.62;94.85;98516.31;5056432;28;20574;-61
2024/01/04 03:00:07;;;;;;;1.90;0.50;;;;;;;9.51;95.75;98507.91;5056905;28;20521;-61
2024/01/04 03:02:34;;;;;;;1.70;0.40;;;;;;;9.56;96.75;98522.00;5056395;28;20463;-61
2024/01/04 03:05:01;;;;;;;1.70;0.40;;;;;;;9.47;98.86;98520.53;5055908;28;20529;-62
2024/01/04 03:07:27;;;;;;;1.63;0.40;;;;;;;9.26;100.00;98520.75;5055867;28;20438;-62
2024/01/04 03:09:56;;;;;;;4.03;0.67;;;;;;;9.05;100.00;98510.13;5056008;28;20473;-64
2024/01/04 03:12:23;;;;;;;1.80;0.40;;;;;;;8.92;100.00;98511.28;5055981;28;20543;-62
2024/01/04 03:14:51;;;;;;;1.60;0.40;;;;;;;8.81;100.00;98508.28;5056180;28;20474;-62
2024/01/04 03:17:17;;;;;;;1.60;0.40;;;;;;;8.76;100.00;98508.47;5055752;28;20478;-62
2024/01/04 03:19:44;;;;;;;1.60;0.30;;;;;;;8.66;100.00;98506.25;5055968;28;20504;-62
2024/01/04 03:22:10;;;;;;;1.80;0.40;;;;;;;8.64;100.00;98503.91;5055892;28;20565;-62
2024/01/04 03:24:37;;;;;;;1.60;0.40;;;;;;;8.62;100.00;98508.06;5056368;28;20529;-62
2024/01/04 03:27:04;;;;;;;1.60;0.40;;;;;;;8.58;100.00;98503.31;5055881;28;20500;-62
2024/01/04 03:29:31;;;;;;;1.60;0.40;;;;;;;8.58;100.00;98503.31;5055432;28;20478;-62
2024/01/04 03:31:59;;;;;;;1.60;0.50;;;;;;;8.54;100.00;98502.47;5055671;28;20532;-62
2024/01/04 03:34:25;;;;;;;1.60;0.40;;;;;;;8.55;100.00;98509.41;5055898;28;20864;-62
2024/01/04 03:36:52;;;;;;;1.60;0.40;;;;;;;8.50;100.00;98508.84;5055345;28;20565;-61
2024/01/04 03:39:19;;;;;;;1.63;0.40;;;;;;;8.50;100.00;98508.84;5037743;28;20438;-61
2024/01/04 03:41:45;;;;;;;1.60;0.30;;;;;;;8.47;100.00;98512.22;5055637;28;20462;-62
2024/01/04 03:44:12;;;;;;;1.60;0.40;;;;;;;8.42;100.00;98509.75;5055672;28;20533;-61
2024/01/04 03:46:39;;;;;;;1.60;0.30;;;;;;;8.48;100.00;98503.00;5055452;28;20860;-62
2024/01/04 03:49:07;;;;;;;1.60;0.40;;;;;;;8.47;100.00;98507.63;5056014;28;20838;-62
2024/01/04 03:51:33;;;;;;;1.60;0.37;;;;;;;8.45;100.00;98506.38;5055666;28;20465;-62
2024/01/04 03:54:00;;;;;;;1.63;0.40;;;;;;;8.45;100.00;98509.06;5054962;28;20992;-62
2024/01/04 03:56:27;;;;;;;2.30;0.40;;;;;;;8.44;100.00;98515.59;5055124;28;20485;-62
2024/01/04 03:58:53;;;;;;;1.60;0.40;;;;;;;8.42;100.00;98509.75;5055477;28;20439;-62
2024/01/04 04:01:20;;;;;;;1.60;0.40;;;;;;;8.44;100.00;98515.59;5055304;28;20548;-62
2024/01/04 04:03:47;;;;;;;2.43;0.47;;;;;;;8.44;100.00;98512.91;5055038;28;20492;-62
2024/01/04 04:06:15;;;;;;;1.60;0.40;;;;;;;8.49;100.00;98518.06;5055348;28;20517;-62
2024/01/04 04:08:41;;;;;;;1.70;0.40;;;;;;;8.52;100.00;98514.69;5054960;28;20488;-62
2024/01/04 04:11:15;;;;;;;1.60;0.40;;;;;;;8.52;100.00;98514.69;5055271;28;20799;-62
2024/01/04 04:13:42;;;;;;;1.70;0.40;;;;;;;8.51;100.00;98518.53;5055125;28;20439;-62
2024/01/04 04:16:09;;;;;;;1.50;0.30;;;;;;;8.58;100.00;98524.13;5054814;28;20502;-62
2024/01/04 04:18:35;;;;;;;2.00;0.50;;;;;;;8.56;100.00;98523.69;5054481;28;20925;-62
2024/01/04 04:21:02;;;;;;;1.60;0.40;;;;;;;8.57;100.00;98525.25;5054947;28;20441;-62
2024/01/04 04:23:32;;;;;;;1.60;0.40;;;;;;;8.60;100.00;98521.91;5054503;28;20786;-62
2024/01/04 04:25:58;;;;;;;1.60;0.40;;;;;;;8.67;100.00;98527.50;5055309;28;20438;-62
2024/01/04 04:28:26;;;;;;;1.50;0.37;;;;;;;8.67;100.00;98524.00;5054964;28;20537;-62
2024/01/04 04:30:53;;;;;;;1.60;0.40;;;;;;;8.65;100.00;98526.28;5054906;28;20438;-62
2024/01/04 04:33:20;;;;;;;1.60;0.40;;;;;;;8.64;100.00;98532.81;5054326;28;20540;-62
2024/01/04 04:35:46;;;;;;;1.70;0.50;;;;;;;8.71;100.00;98533.78;5054263;28;20481;-62
2024/01/04 04:38:13;;;;;;;1.70;0.40;;;;;;;8.73;100.00;98534.25;5054887;28;20796;-62
2024/01/04 04:40:41;;;;;;;1.60;0.40;;;;;;;8.71;100.00;98533.78;5054278;28;20453;-61
2024/01/04 04:43:08;;;;;;;1.70;0.43;;;;;;;8.78;100.00;98539.41;5054410;28;20554;-61
2024/01/04 04:45:34;;;;;;;1.80;0.57;;;;;;;8.80;100.00;98558.75;5054694;28;20465;-61
2024/01/04 04:48:01;;;;;;;1.70;0.43;;;;;;;8.78;100.00;98539.41;5054536;28;20851;-61
2024/01/04 04:50:27;;;;;;;1.70;0.50;;;;;;;8.87;100.00;98544.69;5054345;28;20470;-62
2024/01/04 04:52:54;;;;;;;1.60;0.30;;;;;;;8.84;100.00;98548.06;5053975;28;20486;-61
2024/01/04 04:55:21;;;;;;;1.70;0.40;;;;;;;8.78;100.00;98552.91;5054180;28;20872;-62
2024/01/04 04:57:49;;;;;;;2.20;0.50;;;;;;;8.76;100.00;98547.06;5054336;28;20555;-63
2024/01/04 05:00:16;;;;;;;1.63;0.47;;;;;;;8.80;100.00;98553.34;5053941;28;20478;-62
2024/01/04 05:02:43;;;;;;;1.87;0.47;;;;;;;8.75;100.00;98553.56;5053927;28;20547;-61
2024/01/04 05:05:09;;;;;;;1.90;0.50;;;;;;;8.78;100.00;98555.59;5053607;28;20465;-62
2024/01/04 05:07:36;;;;;;;1.60;0.40;;;;;;;8.78;100.00;98565.63;5054187;28;20514;-61
2024/01/04 05:10:04;;;;;;;1.70;0.50;;;;;;;8.84;100.00;98570.44;5053686;28;20533;-61
2024/01/04 05:12:31;;;;;;;2.37;0.80;;;;;;;8.80;100.00;98569.53;5053541;28;20966;-61
2024/01/04 05:14:59;;;;;;;1.70;0.50;;;;;;;8.78;100.00;98568.31;5053913;28;20887;-61
2024/01/04 05:17:26;;;;;;;1.70;0.60;;;;;;;8.78;100.00;98571.81;5053877;28;20518;-61
2024/01/04 05:19:53;;;;;;;2.10;0.60;;;;;;;8.76;100.00;98579.44;5054060;28;20435;-61
2024/01/04 05:22:20;;;;;;;1.73;0.57;;;;;;;8.74;100.00;98575.53;5053552;28;20466;-61
2024/01/04 05:24:47;;;;;;;1.70;0.50;;;;;;;8.72;100.00;98589.38;5053373;28;20453;-61
2024/01/04 05:27:14;;;;;;;3.20;0.93;;;;;;;8.71;100.00;98586.97;5053830;28;20435;-63
2024/01/04 05:29:40;;;;;;;2.17;0.70;;;;;;;8.60;100.00;98583.97;5054122;28;20482;-61
2024/01/04 05:32:08;;;;;;;1.90;0.50;;;;;;;8.56;100.00;98596.53;5053696;28;20462;-61
2024/01/04 05:34:36;;;;;;;1.60;0.50;;;;;;;8.55;100.00;98593.06;5053499;28;20438;-62
2024/01/04 05:37:03;;;;;;;1.60;0.40;;;;;;;8.52;100.00;98587.56;5067733;22;20525;-65
2024/01/04 05:39:29;;;;;;;1.60;0.40;;;;;;;8.47;100.00;98595.88;5053920;28;20545;-67
2024/01/04 05:41:56;;;;;;;1.90;0.63;;;;;;;8.42;100.00;98604.19;5053126;28;20450;-70
2024/01/04 05:44:23;;;;;;;1.60;0.40;;;;;;;8.44;100.00;98599.22;5053667;28;20434;-70
2024/01/04 05:46:50;;;;;;;2.00;0.57;;;;;;;8.42;100.00;98599.56;5053749;28;20793;-70
2024/01/04 05:49:18;;;;;;;1.83;0.60;;;;;;;8.44;100.00;98599.22;5053378;28;20438;-70
2024/01/04 05:51:45;;;;;;;1.50;0.40;;;;;;;8.33;100.00;98605.03;5053534;28;20469;-70
2024/01/04 05:54:11;;;;;;;2.23;0.40;;;;;;;8.27;100.00;98603.66;5053017;28;20809;-70
2024/01/04 05:56:38;;;;;;;2.00;0.50;;;;;;;8.21;100.00;98604.22;5053641;28;20520;-71
2024/01/04 05:59:05;;;;;;;1.80;0.50;;;;;;;8.25;100.00;98613.22;5053305;28;20469;-71
2024/01/04 06:01:31;;;;;;;1.87;0.57;;;;;;;8.26;100.00;98614.78;5053454;28;20504;-71
2024/01/04 06:03:58;;;;;;;1.93;0.63;;;;;;;8.27;100.00;98611.75;5054000;28;20448;-71
2024/01/04 06:06:26;;;;;;;1.60;0.47;;;;;;;8.28;100.00;98617.97;5053300;28;20467;-71
2024/01/04 06:08:53;;;;;;;1.60;0.40;;;;;;;8.27;100.00;98621.75;5053208;28;20458;-71
2024/01/04 06:11:20;;;;;;;1.80;0.60;;;;;;;8.32;100.00;98633.13;5052992;28;20468;-71
2024/01/04 06:13:46;;;;;;;2.43;0.60;;;;;;;8.33;100.00;98625.84;5053845;28;20473;-71
2024/01/04 06:16:13;;;;;;;1.60;0.40;;;;;;;8.35;100.00;98635.16;5053289;28;20522;-71
2024/01/04 06:18:40;;;;;;;1.70;0.50;;;;;;;8.35;100.00;98626.28;5053372;28;20597;-71
2024/01/04 06:21:06;;;;;;;2.87;0.67;;;;;;;8.25;100.00;98635.59;5052781;28;20438;-71
2024/01/04 06:23:34;;;;;;;2.23;0.93;;;;;;;8.32;100.00;98645.81;5053236;28;20905;-71
2024/01/04 06:26:01;;;;;;;1.93;0.50;;;;;;;8.30;100.00;98659.63;5053054;28;20521;-71
2024/01/04 06:28:27;;;;;;;2.40;0.67;;;;;;;8.27;100.00;98667.59;5052965;28;20513;-71
2024/01/04 06:30:54;;;;;;;2.90;0.67;;;;;;;8.22;100.00;98671.31;5052914;28;20533;-70
2024/01/04 06:33:21;;;;;;;1.70;0.50;;;;;;;8.14;100.00;98690.25;5053068;28;20536;-71
2024/01/04 06:35:47;;;;;;;1.70;0.47;;;;;;;8.01;100.00;98694.81;5052971;28;20811;-72
2024/01/04 06:38:14;;;;;;;1.60;0.40;;;;;;;7.91;100.00;98703.31;5052942;28;20561;-71
2024/01/04 06:40:42;;;;;;;1.60;0.40;;;;;;;7.76;100.00;98710.09;5052892;28;20492;-71
2024/01/04 06:43:09;;;;;;;1.80;0.60;;;;;;;7.71;100.00;98705.69;5053289;28;20486;-71
2024/01/04 06:45:36;;;;;;;1.60;0.40;;;;;;;7.69;100.00;98712.50;5054173;28;20438;-72
2024/01/04 06:48:03;;;;;;;1.60;0.40;;;;;;;7.58;100.00;98712.13;5056346;28;20803;-71
2024/01/04 06:50:30;;;;;;;1.60;0.50;;;;;;;7.54;100.00;98713.88;5056440;28;20454;-72
2024/01/04 06:52:57;;;;;;;1.60;0.40;;;;;;;7.53;100.00;98728.47;5056359;28;20878;-71
2024/01/04 06:55:24;;;;;;;1.53;0.40;;;;;;;7.41;100.00;98729.16;5056428;28;20946;-71
2024/01/04 06:57:52;;;;;;;1.60;0.47;;;;;;;7.31;100.00;98722.25;5055881;28;21012;-71
2024/01/04 07:00:19;;;;;;;1.67;0.47;;;;;;;7.26;100.00;98727.81;5056700;28;20470;-70
2024/01/04 07:02:46;;;;;;;1.60;0.37;;;;;;;7.29;100.00;98743.31;5056465;28;20468;-71
2024/01/04 07:05:12;;;;;;;1.53;0.40;;;;;;;7.21;100.00;98751.44;5056443;28;20469;-71
2024/01/04 07:07:39;;;;;;;1.60;0.30;;;;;;;7.20;100.00;98752.56;5055769;28;20945;-71
2024/01/04 07:10:07;;;;;;;1.60;0.40;;;;;;;7.08;100.00;98745.16;5056186;28;20442;-71
2024/01/04 07:12:34;;;;;;;1.57;0.30;;;;;;;7.05;100.00;98756.56;5056372;28;20462;-70
2024/01/04 07:15:02;;;;;;;1.57;0.30;;;;;;;6.91;100.00;98758.69;5055705;28;20830;-71
2024/01/04 07:17:28;;;;;;;1.53;0.37;;;;;;;6.87;100.00;98763.13;5056034;28;20486;-70
2024/01/04 07:19:55;;;;;;;1.70;0.50;;;;;;;6.76;100.00;98768.84;5056182;28;20985;-70
2024/01/04 07:22:22;;;;;;;1.60;0.30;;;;;;;6.76;100.00;98766.16;5055761;28;20486;-71
2024/01/04 07:24:48;;;;;;;1.53;0.30;;;;;;;6.73;100.00;98776.75;5055830;28;21019;-71
2024/01/04 07:27:15;;;;;;;1.50;0.40;;;;;;;6.72;100.00;98786.72;5055611;28;20532;-71
2024/01/04 07:29:42;;;;;;;1.53;0.30;;;;;;;6.69;100.00;98783.91;5055968;28;20440;-71
2024/01/04 07:32:10;;;;;;;1.50;0.30;;;;;;;6.67;100.00;98792.28;5055761;28;20552;-71
2024/01/04 07:34:38;;;;;;;1.50;0.40;;;;;;;6.56;100.00;98793.75;5056128;28;20520;-71
2024/01/04 07:37:05;;;;;;;1.90;0.60;;;;;;;6.56;100.00;98788.34;5055529;28;20449;-71
2024/01/04 07:39:32;;;;;;;1.70;0.50;;;;;;;6.57;100.00;98779.19;5055825;28;20784;-71
2024/01/04 07:41:59;;;;;;;1.57;0.30;;;;;;;6.53;100.00;98805.91;5055185;28;20830;-71
2024/01/04 07:44:25;;;;;;;1.60;0.40;;;;;;;6.47;100.00;98803.72;5055187;28;20521;-70
2024/01/04 07:46:52;;;;;;;1.60;0.40;;;;;;;6.40;100.00;98814.16;5055439;28;20505;-70
2024/01/04 07:49:20;;;;;;;1.60;0.43;;;;;;;6.31;100.00;98809.56;5055502;28;20479;-71
2024/01/04 07:51:46;;;;;;;1.60;0.40;;;;;;;6.28;100.00;98810.19;5055265;28;20545;-70
2024/01/04 07:54:13;;;;;;;1.70;0.57;;;;;;;6.19;100.00;98812.06;5054938;28;20470;-70
2024/01/04 07:56:40;;;;;;;3.30;0.73;;;;;;;6.24;100.00;98809.25;5054563;28;20442;-70
2024/01/04 07:59:06;;;;;;;3.40;0.67;;;;;;;6.21;100.00;98819.84;5055445;28;20514;-69
2024/01/04 08:01:34;;;;;;;1.60;0.40;;;;;;;6.16;100.00;98823.47;5055062;28;20865;-70
2024/01/04 08:04:00;;;;;;;1.97;0.80;;;;;;;6.09;100.00;98816.97;5055052;28;20446;-70
2024/01/04 08:06:28;;;;;;;1.70;0.57;;;;;;;6.06;100.00;98808.47;5055398;28;20621;-70
2024/01/04 08:08:55;;;;;;;1.90;0.57;;;;;;;6.07;100.00;98820.00;5055229;28;20434;-69
2024/01/04 08:11:22;;;;;;;1.60;0.40;;;;;;;6.09;100.00;98823.16;5054813;28;20541;-69
2024/01/04 08:13:49;;;;;;;1.70;0.50;;;;;;;6.08;100.00;98821.56;5054866;28;20450;-70
2024/01/04 08:16:16;;;;;;;5.93;0.50;;;;;;;6.00;100.00;98838.47;5054790;28;20446;-69
2024/01/04 08:18:42;;;;;;;1.50;0.30;;;;;;;5.92;100.00;98834.66;5055046;28;20478;-70
2024/01/04 08:21:09;;;;;;;1.70;0.50;;;;;;;5.87;100.00;98844.72;5055148;28;20507;-69
2024/01/04 08:23:38;;;;;;;1.60;0.40;;;;;;;5.83;100.00;98849.94;5054373;28;20964;-69
2024/01/04 08:26:05;;;;;;;1.50;0.30;;;;;;;5.86;100.00;98851.22;5054673;28;20449;-71
2024/01/04 08:28:32;;;;;;;1.57;0.40;;;;;;;5.76;100.00;98857.69;5054979;28;20496;-70
2024/01/04 08:30:59;;;;;;;1.60;0.50;;;;;;;5.65;100.00;98878.63;5054404;28;20438;-68
2024/01/04 08:33:25;;;;;;;1.50;0.30;;;;;;;5.48;100.00;98868.59;5054435;28;20460;-70
2024/01/04 08:35:52;;;;;;;1.67;0.37;;;;;;;5.44;100.00;98880.28;5054494;28;20469;-69
2024/01/04 08:38:18;;;;;;;1.60;0.50;;;;;;;5.38;100.00;98879.63;5054571;28;20462;-70
2024/01/04 08:40:47;;;;;;;1.57;0.37;;;;;;;5.34;100.00;98878.66;5054481;28;20439;-70
2024/01/04 08:43:14;;;;;;;1.50;0.30;;;;;;;5.18;100.00;98885.50;5054234;28;20462;-70
2024/01/04 08:45:40;;;;;;;1.53;0.40;;;;;;;5.11;100.00;98895.91;5054397;28;20434;-70
2024/01/04 08:48:07;;;;;;;1.60;0.40;;;;;;;5.09;100.00;98901.59;5054504;28;20521;-70
2024/01/04 08:50:34;;;;;;;1.57;0.37;;;;;;;5.00;100.00;98898.03;5053940;28;20446;-72
2024/01/04 08:53:01;;;;;;;1.50;0.30;;;;;;;5.03;100.00;98900.09;5054676;28;20546;-70
2024/01/04 08:55:27;;;;;;;1.70;0.50;;;;;;;4.99;100.00;98904.50;5054995;28;20439;-70
2024/01/04 08:57:55;;;;;;;1.60;0.37;;;;;;;4.97;100.00;98906.69;5054797;28;20478;-70
2024/01/04 09:00:22;;;;;;;1.50;0.33;;;;;;;4.89;100.00;98885.97;5054279;28;20521;-72
2024/01/04 09:02:49;;;;;;;1.50;0.30;;;;;;;4.92;100.00;98893.41;5053807;28;20490;-72
2024/01/04 09:05:17;;;;;;;1.50;0.30;;;;;;;4.92;100.00;98904.94;5053695;28;20443;-74
2024/01/04 09:07:43;;;;;;;1.50;0.30;;;;;;;4.85;100.00;98903.75;5053634;28;20472;-74
2024/01/04 09:10:10;;;;;;;1.77;0.50;;;;;;;4.83;100.00;98922.84;5054115;28;20442;-73
2024/01/04 09:12:38;;;;;;;1.70;0.50;;;;;;;4.75;100.00;98921.69;5053811;28;20553;-73
2024/01/04 09:15:08;;;;;;;1.50;0.30;;;;;;;4.69;100.00;98932.81;5053734;28;20450;-73
2024/01/04 09:17:34;;;;;;;1.60;0.50;;;;;;;4.68;100.00;98928.56;5053707;28;20447;-73
2024/01/04 09:20:01;;;;;;;1.57;0.30;;;;;;;4.63;100.00;98940.19;5053670;28;20438;-72
2024/01/04 09:22:28;;;;;;;1.60;0.40;;;;;;;4.62;100.00;98945.84;5054526;28;20466;-74
2024/01/04 09:24:55;;;;;;;1.60;0.40;;;;;;;4.55;100.00;98943.56;5054587;28;20904;-72
2024/01/04 09:27:23;;;;;;;1.60;0.40;;;;;;;4.49;100.00;98955.50;5053482;28;20447;-73
2024/01/04 09:29:50;;;;;;;1.50;0.30;;;;;;;4.36;100.00;98973.19;5054316;28;20541;-72
2024/01/04 09:32:19;;;;;;;1.60;0.40;;;;;;;4.36;100.00;98956.34;5053487;28;20461;-73
2024/01/04 09:34:45;;;;;;;1.53;0.30;;;;;;;4.35;100.00;98957.44;5053723;28;20446;-73
2024/01/04 09:37:12;;;;;;;1.60;0.40;;;;;;;4.27;100.00;98975.78;5053584;28;20854;-73
2024/01/04 09:39:39;;;;;;;1.60;0.40;;;;;;;4.27;100.00;98975.78;5053559;28;20569;-73
2024/01/04 09:42:09;;;;;;;1.90;0.63;;;;;;;4.32;100.00;98972.22;5053095;28;20473;-74
2024/01/04 09:44:36;;;;;;;1.50;0.30;;;;;;;4.39;100.00;98986.00;5053507;28;20489;-73
2024/01/04 09:47:08;;;;;;;1.77;0.47;;;;;;;4.37;100.00;98992.75;5053668;28;20530;-73
2024/01/04 09:49:37;;;;;;;1.50;0.30;;;;;;;4.37;100.00;99031.06;5053910;28;20750;-72
2024/01/04 09:52:04;;;;;;;1.60;0.40;;;;;;;4.33;100.00;98997.91;5053392;28;20543;-72
2024/01/04 09:54:32;;;;;;;1.50;0.30;;;;;;;4.29;100.00;98992.38;5053007;28;20537;-72
2024/01/04 09:57:00;;;;;;;1.50;0.30;;;;;;;4.33;100.00;99005.97;5053495;28;20468;-73
2024/01/04 09:59:27;;;;;;;1.60;0.40;;;;;;;4.30;100.00;99010.03;5053544;28;20478;-72
2024/01/04 10:01:54;;;;;;;1.50;0.37;;;;;;;4.26;100.00;99011.72;5053130;28;20517;-71
2024/01/04 10:04:22;;;;;;;1.50;0.40;;;;;;;4.32;100.00;99019.66;5052906;28;20533;-71
2024/01/04 10:06:51;;;;;;;2.43;0.70;;;;;;;4.37;100.00;99008.84;5053166;28;20446;-73
2024/01/04 10:09:25;;;;;;;1.60;0.40;;;;;;;4.41;100.00;99010.63;5053164;28;20522;-71
2024/01/04 10:12:03;;;;;;;1.60;0.40;;;;;;;4.44;100.00;99014.59;5053151;28;20533;-72
2024/01/04 10:14:31;;;;;;;1.50;0.30;;;;;;;4.36;100.00;99017.97;5052873;28;20792;-71
2024/01/04 10:16:59;;;;;;;1.50;0.30;;;;;;;4.33;100.00;99022.03;5053064;28;20456;-71
2024/01/04 10:19:26;;;;;;;1.57;0.30;;;;;;;4.36;99.17;99010.72;5053028;28;20482;-71
2024/01/04 10:21:54;;;;;;;1.50;0.30;;;;;;;4.42;97.33;99024.81;5056041;28;20537;-71
2024/01/04 10:24:24;;;;;;;1.50;0.30;;;;;;;4.42;97.81;99027.50;5056930;28;20524;-71
2024/01/04 10:26:57;;;;;;;2.10;0.57;;;;;;;4.48;98.27;99035.16;5056939;28;20910;-71
2024/01/04 10:29:25;;;;;;;1.50;0.30;;;;;;;4.47;96.85;99025.53;5057044;28;20430;-71
2024/01/04 10:31:59;;;;;;;1.50;0.30;;;;;;;4.51;95.19;99044.47;5057132;28;20537;-71
2024/01/04 10:34:26;;;;;;;1.50;0.30;;;;;;;4.49;94.77;99039.41;5056731;28;20481;-70
2024/01/04 10:36:56;;;;;;;1.70;0.40;;;;;;;4.45;94.52;99048.34;5056610;28;20450;-72
2024/01/04 10:39:22;;;;;;;1.50;0.30;;;;;;;4.46;92.78;99056.09;5056940;28;20864;-69
2024/01/04 10:41:59;;;;;;;1.70;0.40;;;;;;;4.50;93.25;99058.97;5057095;28;20462;-70
2024/01/04 10:44:26;;;;;;;1.50;0.30;;;;;;;4.46;92.09;99074.06;5056604;28;20433;-69
2024/01/04 10:46:55;;;;;;;1.53;0.30;;;;;;;4.47;92.97;99071.09;5056503;28;20537;-69
2024/01/04 10:49:23;;;;;;;1.57;0.40;;;;;;;4.50;93.01;99075.06;5056660;28;20438;-68
2024/01/04 10:51:52;;;;;;;2.57;0.80;;;;;;;4.47;93.15;99081.81;5055959;28;20511;-68
2024/01/04 10:54:21;;;;;;;1.50;0.30;;;;;;;4.51;93.73;99090.84;5056017;28;20929;-70
2024/01/04 10:56:48;;;;;;;1.60;0.40;;;;;;;4.54;92.45;99095.63;5056743;28;20468;-68
2024/01/04 10:59:16;;;;;;;1.70;0.57;;;;;;;4.49;91.49;99095.72;5056078;28;20535;-68
2024/01/04 11:01:44;;;;;;;1.50;0.30;;;;;;;4.50;92.15;99101.88;5055934;28;20537;-68
2024/01/04 11:04:12;;;;;;;1.50;0.30;;;;;;;4.43;92.57;99093.44;5056105;28;20525;-69
2024/01/04 11:06:40;;;;;;;1.50;0.30;;;;;;;4.48;93.33;99120.16;5056675;28;20521;-69
2024/01/04 11:09:08;;;;;;;1.53;0.30;;;;;;;4.45;92.97;99104.66;5055797;28;20929;-70
2024/01/04 11:11:36;;;;;;;1.60;0.40;;;;;;;4.40;93.03;99128.88;5056048;28;20455;-69
2024/01/04 11:14:03;;;;;;;1.50;0.30;;;;;;;4.46;92.56;99116.94;5056092;28;20442;-68
2024/01/04 11:16:51;;;;;;;1.50;0.30;;;;;;;4.46;93.85;99138.41;5055816;28;20437;-69
2024/01/04 11:19:27;;;;;;;1.50;0.40;;;;;;;4.46;93.38;99128.47;5055596;28;20498;-69
2024/01/04 11:22:13;;;;;;;2.07;0.70;;;;;;;4.40;93.80;99132.34;5056055;28;20468;-69
2024/01/04 11:24:56;;;;;;;1.50;0.30;;;;;;;4.39;94.33;99146.06;5055758;28;20509;-68
2024/01/04 11:27:26;;;;;;;1.50;0.33;;;;;;;4.41;93.04;99151.91;5055846;28;20882;-69
2024/01/04 11:29:53;;;;;;;1.50;0.30;;;;;;;4.41;92.78;99151.91;5055724;28;20529;-69
2024/01/04 11:32:19;;;;;;;1.53;0.30;;;;;;;4.33;93.47;99163.28;5055514;28;21056;-69
2024/01/04 11:34:48;;;;;;;1.60;0.40;;;;;;;4.33;93.36;99160.63;5055352;28;20525;-69
2024/01/04 11:37:18;;;;;;;1.70;0.57;;;;;;;4.29;92.95;99150.50;5069267;22;20491;-71